createdAt,value
2019-01-27T00:01:53.846Z,6.70
2019-01-27T00:04:22.738Z,6.70
2019-01-27T00:06:51.548Z,6.70
2019-01-27T00:09:20.469Z,6.70
2019-01-27T00:11:49.499Z,6.80
2019-01-27T00:14:18.494Z,6.70
2019-01-27T00:16:47.510Z,6.70
2019-01-27T00:19:16.439Z,6.70
2019-01-27T00:21:45.267Z,6.70
2019-01-27T00:24:14.309Z,6.70
2019-01-27T00:26:43.305Z,6.80
2019-01-27T00:29:12.158Z,6.80
2019-01-27T00:31:41.259Z,6.80
2019-01-27T00:34:10.078Z,6.70
2019-01-27T00:36:39.024Z,6.80
2019-01-27T00:39:10.002Z,6.70
2019-01-27T00:41:39.595Z,6.80
2019-01-27T00:44:08.595Z,6.70
2019-01-27T00:46:37.562Z,6.80
2019-01-27T00:49:06.897Z,6.80
2019-01-27T00:51:35.910Z,6.80
2019-01-27T00:54:05.565Z,6.80
2019-01-27T00:56:34.392Z,6.80
2019-01-27T00:59:03.550Z,6.80
2019-01-27T01:01:32.775Z,6.80
2019-01-27T01:04:01.771Z,6.80
2019-01-27T01:06:30.664Z,6.80
2019-01-27T01:08:59.605Z,6.80
2019-01-27T01:11:28.568Z,6.80
2019-01-27T01:13:57.479Z,6.80
2019-01-27T01:16:26.376Z,6.80
2019-01-27T01:18:55.413Z,6.80
2019-01-27T01:21:24.411Z,6.80
2019-01-27T01:23:53.383Z,6.80
2019-01-27T01:26:22.511Z,6.80
2019-01-27T01:28:51.458Z,6.80
2019-01-27T01:31:20.430Z,6.80
2019-01-27T01:33:49.439Z,6.80
2019-01-27T01:36:18.260Z,6.80
2019-01-27T01:38:47.058Z,6.80
2019-01-27T01:41:16.035Z,6.80
2019-01-27T01:43:44.863Z,6.80
2019-01-27T01:46:13.789Z,6.80
2019-01-27T01:48:42.710Z,6.80
2019-01-27T01:51:11.627Z,6.80
2019-01-27T01:53:40.871Z,6.80
2019-01-27T01:56:09.839Z,6.80
2019-01-27T01:58:38.681Z,6.80
2019-01-27T02:01:07.758Z,6.80
2019-01-27T02:03:36.847Z,6.80
2019-01-27T02:06:06.283Z,6.80
2019-01-27T02:08:35.207Z,6.80
2019-01-27T02:11:04.303Z,6.80
2019-01-27T02:13:33.204Z,6.80
2019-01-27T02:16:07.131Z,6.80
2019-01-27T02:18:37.134Z,6.80
2019-01-27T02:21:06.782Z,6.80
2019-01-27T02:23:35.761Z,6.80
2019-01-27T02:26:07.016Z,6.80
2019-01-27T02:28:36.315Z,6.80
2019-01-27T02:31:05.786Z,6.70
2019-01-27T02:33:34.691Z,6.70
2019-01-27T02:36:03.932Z,6.70
2019-01-27T02:38:32.901Z,6.70
2019-01-27T02:41:01.707Z,6.80
2019-01-27T02:43:30.994Z,6.70
2019-01-27T02:46:00.025Z,6.70
2019-01-27T02:48:28.978Z,6.70
2019-01-27T02:50:57.926Z,6.70
2019-01-27T02:53:26.842Z,6.70
2019-01-27T02:55:55.777Z,6.70
2019-01-27T02:58:24.652Z,6.70
2019-01-27T03:00:53.677Z,6.70
2019-01-27T03:03:22.494Z,6.70
2019-01-27T03:06:16.450Z,6.70
2019-01-27T03:08:51.656Z,6.70
2019-01-27T03:11:20.546Z,6.70
2019-01-27T03:13:49.623Z,6.70
2019-01-27T03:16:19.208Z,6.70
2019-01-27T03:18:48.182Z,6.70
2019-01-27T03:21:17.075Z,6.70
2019-01-27T03:23:45.994Z,6.70
2019-01-27T03:26:14.977Z,6.70
2019-01-27T03:28:43.960Z,6.70
2019-01-27T03:31:12.835Z,6.70
2019-01-27T03:33:41.806Z,6.70
2019-01-27T03:36:10.869Z,6.70
2019-01-27T03:38:39.778Z,6.70
2019-01-27T03:41:08.695Z,6.70
2019-01-27T03:43:37.667Z,6.70
2019-01-27T03:46:06.757Z,6.70
2019-01-27T03:48:35.677Z,6.70
2019-01-27T03:51:04.673Z,6.70
2019-01-27T03:53:33.656Z,6.70
2019-01-27T03:56:02.564Z,6.70
2019-01-27T03:58:31.756Z,6.70
2019-01-27T04:01:00.742Z,6.70
2019-01-27T04:03:29.586Z,6.70
2019-01-27T04:05:58.554Z,6.70
2019-01-27T04:08:27.568Z,6.70
2019-01-27T04:10:56.557Z,6.70
2019-01-27T04:13:25.466Z,6.70
2019-01-27T04:15:54.432Z,6.70
2019-01-27T04:18:23.366Z,6.70
2019-01-27T04:20:52.298Z,6.70
2019-01-27T04:23:21.278Z,6.60
2019-01-27T04:25:50.417Z,6.70
2019-01-27T04:28:19.274Z,6.70
2019-01-27T04:30:48.156Z,6.60
2019-01-27T04:33:17.097Z,6.60
2019-01-27T04:35:46.062Z,6.60
2019-01-27T04:38:15.540Z,6.60
2019-01-27T04:40:44.487Z,6.70
2019-01-27T04:43:13.390Z,6.60
2019-01-27T04:45:42.266Z,6.60
2019-01-27T04:48:11.173Z,6.70
2019-01-27T04:50:40.231Z,6.70
2019-01-27T04:53:09.132Z,6.60
2019-01-27T04:55:37.951Z,6.60
2019-01-27T04:58:07.014Z,6.70
2019-01-27T05:00:35.994Z,6.60
2019-01-27T05:03:11.491Z,6.70
2019-01-27T05:05:40.714Z,6.60
2019-01-27T05:08:09.871Z,6.60
2019-01-27T05:10:38.739Z,6.60
2019-01-27T05:13:07.863Z,6.60
2019-01-27T05:15:36.735Z,6.60
2019-01-27T05:18:06.157Z,6.60
2019-01-27T05:20:35.131Z,6.60
2019-01-27T05:23:04.038Z,6.60
2019-01-27T05:25:33.086Z,6.60
2019-01-27T05:28:01.909Z,6.60
2019-01-27T05:30:30.819Z,6.60
2019-01-27T05:32:59.708Z,6.60
2019-01-27T05:35:28.559Z,6.60
2019-01-27T05:37:57.369Z,6.60
2019-01-27T05:40:26.258Z,6.60
2019-01-27T05:42:55.077Z,6.60
2019-01-27T05:45:24.234Z,6.60
2019-01-27T05:47:53.287Z,6.60
2019-01-27T05:50:22.358Z,6.60
2019-01-27T05:52:51.385Z,6.60
2019-01-27T05:55:20.697Z,6.60
2019-01-27T05:57:49.671Z,6.60
2019-01-27T06:00:24.509Z,6.60
2019-01-27T06:02:53.603Z,6.60
2019-01-27T06:05:22.541Z,6.60
2019-01-27T06:07:51.712Z,6.60
2019-01-27T06:10:20.667Z,6.50
2019-01-27T06:12:49.567Z,6.50
2019-01-27T06:15:19.063Z,6.60
2019-01-27T06:17:47.996Z,6.60
2019-01-27T06:20:17.221Z,6.50
2019-01-27T06:22:46.280Z,6.50
2019-01-27T06:25:16.094Z,6.50
2019-01-27T06:27:45.286Z,6.50
2019-01-27T06:30:19.911Z,6.50
2019-01-27T06:33:06.727Z,6.50
2019-01-27T06:35:36.359Z,6.50
2019-01-27T06:38:05.355Z,6.50
2019-01-27T06:40:34.197Z,6.50
2019-01-27T06:43:03.110Z,6.50
2019-01-27T06:45:32.076Z,6.50
2019-01-27T06:48:01.162Z,6.50
2019-01-27T06:50:30.081Z,6.50
2019-01-27T06:52:59.015Z,6.50
2019-01-27T06:55:27.995Z,6.50
2019-01-27T06:57:56.857Z,6.50
2019-01-27T07:00:49.399Z,6.50
2019-01-27T07:03:30.855Z,6.40
2019-01-27T07:06:05.654Z,6.40
2019-01-27T07:09:15.692Z,6.50
2019-01-27T07:11:59.814Z,6.40
2019-01-27T07:14:50.765Z,6.40
2019-01-27T07:17:53.861Z,6.40
2019-01-27T07:20:37.822Z,6.40
2019-01-27T07:26:28.332Z,6.40
2019-01-27T07:29:16.371Z,6.40
2019-01-27T07:32:07.200Z,6.40
2019-01-27T07:35:13.394Z,6.40
2019-01-27T07:37:46.241Z,6.40
2019-01-27T07:40:29.273Z,6.40
2019-01-27T07:43:23.227Z,6.40
2019-01-27T07:45:58.303Z,6.30
2019-01-27T07:48:43.589Z,6.40
2019-01-27T07:51:22.482Z,6.30
2019-01-27T07:54:06.430Z,6.40
2019-01-27T07:56:47.003Z,6.30
2019-01-27T07:59:35.245Z,6.40
2019-01-27T08:02:32.403Z,6.40
2019-01-27T08:05:09.974Z,6.30
2019-01-27T08:07:47.682Z,6.30
2019-01-27T08:10:41.679Z,6.30
2019-01-27T08:13:19.788Z,6.30
2019-01-27T08:16:06.395Z,6.30
2019-01-27T08:19:13.058Z,6.30
2019-01-27T08:22:10.455Z,6.30
2019-01-27T08:24:48.528Z,6.30
2019-01-27T08:27:39.573Z,6.30
2019-01-27T08:30:37.466Z,6.30
2019-01-27T08:33:24.180Z,6.30
2019-01-27T08:36:06.122Z,6.30
2019-01-27T08:38:48.578Z,6.30
2019-01-27T08:41:32.438Z,6.30
2019-01-27T08:44:09.110Z,6.30
2019-01-27T08:46:53.838Z,6.30
2019-01-27T08:49:22.694Z,6.30
2019-01-27T08:51:51.609Z,6.30
2019-01-27T08:54:20.754Z,6.30
2019-01-27T08:56:49.659Z,6.30
2019-01-27T08:59:18.498Z,6.30
2019-01-27T09:01:58.395Z,6.30
2019-01-27T09:04:46.403Z,6.30
2019-01-27T09:07:43.701Z,6.30
2019-01-27T09:10:31.667Z,6.30
2019-01-27T09:13:28.934Z,6.30
2019-01-27T09:16:19.762Z,6.30
2019-01-27T09:19:10.532Z,6.30
2019-01-27T09:22:05.048Z,6.30
2019-01-27T09:24:59.034Z,6.30
2019-01-27T09:27:33.319Z,6.30
2019-01-27T09:30:22.096Z,6.30
2019-01-27T09:32:58.521Z,6.30
2019-01-27T09:35:46.625Z,6.30
2019-01-27T09:38:39.376Z,6.30
2019-01-27T09:41:30.263Z,6.30
2019-01-27T09:44:18.173Z,6.30
2019-01-27T09:47:08.936Z,6.30
2019-01-27T09:49:50.199Z,6.30
2019-01-27T09:52:36.895Z,6.30
2019-01-27T09:55:36.142Z,6.30
2019-01-27T09:58:27.057Z,6.30
2019-01-27T10:01:15.147Z,6.30
2019-01-27T10:03:54.480Z,6.30
2019-01-27T10:06:33.676Z,6.30
2019-01-27T10:09:21.607Z,6.30
2019-01-27T10:12:01.911Z,6.30
2019-01-27T10:14:48.963Z,6.30
2019-01-27T10:17:35.710Z,6.30
2019-01-27T10:20:24.223Z,6.30
2019-01-27T10:23:12.646Z,6.30
2019-01-27T10:25:49.241Z,6.30
2019-01-27T10:28:38.193Z,6.30
2019-01-27T10:31:18.377Z,6.30
2019-01-27T10:34:06.393Z,6.30
2019-01-27T10:36:57.458Z,6.30
2019-01-27T10:39:53.365Z,6.30
2019-01-27T10:42:35.118Z,6.30
2019-01-27T10:45:42.227Z,6.40
2019-01-27T10:48:33.067Z,6.30
2019-01-27T10:51:20.002Z,6.30
2019-01-27T10:54:17.218Z,6.40
2019-01-27T10:57:05.451Z,6.40
2019-01-27T11:00:00.979Z,6.40
2019-01-27T11:02:52.048Z,6.40
2019-01-27T11:05:45.822Z,6.40
2019-01-27T11:08:42.628Z,6.40
2019-01-27T11:11:22.702Z,6.40
2019-01-27T11:14:13.746Z,6.40
2019-01-27T11:16:49.462Z,6.40
2019-01-27T11:19:27.814Z,6.40
2019-01-27T11:22:18.924Z,6.40
2019-01-27T11:24:57.825Z,6.40
2019-01-27T11:27:44.523Z,6.30
2019-01-27T11:30:23.264Z,6.30
2019-01-27T11:33:17.159Z,6.30
2019-01-27T11:35:52.786Z,6.30
2019-01-27T11:38:59.113Z,6.30
2019-01-27T11:42:05.340Z,6.40
2019-01-27T11:44:51.754Z,6.30
2019-01-27T11:47:36.888Z,6.30
2019-01-27T11:50:26.802Z,6.30
2019-01-27T11:53:01.987Z,6.30
2019-01-27T11:55:30.886Z,6.30
2019-01-27T11:57:59.752Z,6.30
2019-01-27T12:00:37.427Z,6.30
2019-01-27T12:03:06.427Z,6.30
2019-01-27T12:05:35.508Z,6.30
2019-01-27T12:08:04.601Z,6.30
2019-01-27T12:10:33.482Z,6.30
2019-01-27T12:13:02.381Z,6.30
2019-01-27T12:15:31.307Z,6.30
2019-01-27T12:18:00.220Z,6.20
2019-01-27T12:20:29.135Z,6.20
2019-01-27T12:22:58.055Z,6.20
2019-01-27T12:25:26.885Z,6.20
2019-01-27T12:27:55.816Z,6.20
2019-01-27T12:30:24.770Z,6.20
2019-01-27T12:32:53.791Z,6.20
2019-01-27T12:35:22.771Z,6.20
2019-01-27T12:37:51.886Z,6.20
2019-01-27T12:40:22.396Z,6.10
2019-01-27T12:42:51.309Z,6.20
2019-01-27T12:45:20.223Z,6.10
2019-01-27T12:47:49.270Z,6.10
2019-01-27T12:50:18.419Z,6.10
2019-01-27T12:52:48.982Z,6.10
2019-01-27T12:55:18.046Z,6.10
2019-01-27T12:57:47.067Z,6.10
2019-01-27T13:00:26.077Z,6.10
2019-01-27T13:02:54.988Z,6.10
2019-01-27T13:05:24.202Z,6.10
2019-01-27T13:07:53.255Z,6.10
2019-01-27T13:10:22.154Z,6.20
2019-01-27T13:12:51.165Z,6.20
2019-01-27T13:15:20.361Z,6.20
2019-01-27T13:17:49.263Z,6.20
2019-01-27T13:20:18.204Z,6.20
2019-01-27T13:22:47.238Z,6.20
2019-01-27T13:25:16.839Z,6.20
2019-01-27T13:27:45.862Z,6.20
2019-01-27T13:30:17.375Z,6.20
2019-01-27T13:32:46.479Z,6.20
2019-01-27T13:35:15.800Z,6.20
2019-01-27T13:37:44.773Z,6.20
2019-01-27T13:40:16.327Z,6.30
2019-01-27T13:42:45.395Z,6.30
2019-01-27T13:45:20.155Z,6.30
2019-01-27T13:47:49.079Z,6.30
2019-01-27T13:50:18.143Z,6.30
2019-01-27T13:52:47.280Z,6.30
2019-01-27T13:55:18.803Z,6.30
2019-01-27T13:57:48.269Z,6.30
2019-01-27T14:00:25.750Z,6.30
2019-01-27T14:02:54.819Z,6.30
2019-01-27T14:05:23.894Z,6.40
2019-01-27T14:07:53.086Z,6.40
2019-01-27T14:10:23.893Z,6.40
2019-01-27T14:12:53.209Z,6.40
2019-01-27T14:17:58.884Z,6.40
2019-01-27T14:20:27.910Z,6.40
2019-01-27T14:22:56.910Z,6.40
2019-01-27T14:25:27.177Z,6.40
2019-01-27T14:27:56.163Z,6.40
2019-01-27T14:30:33.984Z,6.40
2019-01-27T14:33:02.991Z,6.40
2019-01-27T14:35:31.868Z,6.40
2019-01-27T14:38:00.947Z,6.40
2019-01-27T14:40:30.070Z,6.40
2019-01-27T14:43:00.715Z,6.50
2019-01-27T14:45:30.135Z,6.50
2019-01-27T14:47:59.273Z,6.40
2019-01-27T14:50:36.684Z,6.40
2019-01-27T14:53:06.832Z,6.40
2019-01-27T14:55:35.912Z,6.40
2019-01-27T14:58:05.028Z,6.40
2019-01-27T15:00:36.591Z,6.40
2019-01-27T15:03:07.256Z,6.40
2019-01-27T15:05:36.248Z,6.40
2019-01-27T15:08:06.217Z,6.40
2019-01-27T15:10:35.323Z,6.40
2019-01-27T15:13:04.726Z,6.50
2019-01-27T15:15:33.646Z,6.50
2019-01-27T15:18:02.721Z,6.40
2019-01-27T15:20:52.451Z,6.40
2019-01-27T15:23:21.522Z,6.50
2019-01-27T15:25:50.477Z,6.50
2019-01-27T15:28:19.391Z,6.50
2019-01-27T15:30:48.651Z,6.40
2019-01-27T15:33:17.647Z,6.40
2019-01-27T15:35:46.617Z,6.40
2019-01-27T15:38:15.515Z,6.40
2019-01-27T15:40:44.421Z,6.40
2019-01-27T15:43:13.591Z,6.40
2019-01-27T15:45:42.500Z,6.30
2019-01-27T15:48:11.389Z,6.30
2019-01-27T15:50:40.631Z,6.30
2019-01-27T15:53:09.682Z,6.30
2019-01-27T15:55:38.990Z,6.30
2019-01-27T15:58:09.001Z,6.20
2019-01-27T16:00:37.994Z,6.20
2019-01-27T16:03:07.011Z,6.20
2019-01-27T16:05:35.947Z,6.20
2019-01-27T16:08:05.368Z,6.20
2019-01-27T16:10:34.364Z,6.10
2019-01-27T16:13:03.190Z,6.10
2019-01-27T16:15:33.303Z,6.10
2019-01-27T16:18:02.447Z,6.10
2019-01-27T16:20:31.413Z,6.00
2019-01-27T16:23:25.542Z,6.00
2019-01-27T16:25:54.643Z,6.00
2019-01-27T16:28:23.598Z,6.00
2019-01-27T16:31:10.990Z,5.90
2019-01-27T16:34:17.418Z,5.90
2019-01-27T16:36:46.626Z,5.90
2019-01-27T16:39:15.730Z,5.90
2019-01-27T16:41:44.736Z,5.80
2019-01-27T16:44:13.538Z,5.80
2019-01-27T16:46:42.481Z,5.80
2019-01-27T16:49:11.487Z,5.80
2019-01-27T16:51:40.305Z,5.80
2019-01-27T16:54:09.359Z,5.70
2019-01-27T16:56:38.247Z,5.70
2019-01-27T16:59:07.314Z,5.70
2019-01-27T17:01:36.458Z,5.70
2019-01-27T17:04:05.630Z,5.60
2019-01-27T17:06:53.794Z,5.60
2019-01-27T17:09:22.788Z,5.60
2019-01-27T17:11:51.870Z,5.60
2019-01-27T17:14:20.786Z,5.50
2019-01-27T17:16:50.197Z,5.50
2019-01-27T17:19:19.379Z,5.50
2019-01-27T17:21:48.275Z,5.40
2019-01-27T17:24:17.098Z,5.40
2019-01-27T17:26:46.040Z,5.40
2019-01-27T17:29:14.905Z,5.40
2019-01-27T17:31:44.863Z,5.30
2019-01-27T17:34:14.259Z,5.30
2019-01-27T17:36:43.380Z,5.30
2019-01-27T17:39:12.363Z,5.20
2019-01-27T17:41:41.281Z,5.20
2019-01-27T17:44:10.232Z,5.20
2019-01-27T17:46:39.139Z,5.20
2019-01-27T17:49:08.119Z,5.20
2019-01-27T17:51:37.295Z,5.20
2019-01-27T17:54:08.711Z,5.20
2019-01-27T17:56:38.007Z,5.20
2019-01-27T17:59:22.936Z,5.20
2019-01-27T18:02:09.695Z,5.20
2019-01-27T18:04:49.335Z,5.20
2019-01-27T18:07:36.191Z,5.20
2019-01-27T18:10:22.631Z,5.20
2019-01-27T18:13:13.559Z,5.20
2019-01-27T18:15:42.552Z,5.20
2019-01-27T18:18:11.646Z,5.20
2019-01-27T18:20:40.578Z,5.20
2019-01-27T18:23:09.617Z,5.20
2019-01-27T18:25:38.744Z,5.20
2019-01-27T18:28:07.891Z,5.10
2019-01-27T18:30:36.890Z,5.10
2019-01-27T18:33:05.800Z,5.10
2019-01-27T18:35:34.810Z,5.10
2019-01-27T18:38:04.023Z,5.10
2019-01-27T18:40:33.019Z,5.10
2019-01-27T18:43:01.874Z,5.10
2019-01-27T18:45:31.151Z,5.00
2019-01-27T18:48:00.005Z,5.00
2019-01-27T18:50:28.968Z,5.00
2019-01-27T18:53:17.011Z,5.00
2019-01-27T18:55:52.374Z,5.00
2019-01-27T18:58:34.279Z,5.00
2019-01-27T19:01:21.025Z,5.00
2019-01-27T19:04:12.115Z,5.00
2019-01-27T19:06:54.976Z,5.00
2019-01-27T19:09:29.986Z,5.00
2019-01-27T19:12:12.430Z,5.00
2019-01-27T19:14:50.583Z,5.00
2019-01-27T19:17:38.484Z,4.90
2019-01-27T19:20:28.683Z,4.90
2019-01-27T19:23:10.434Z,4.90
2019-01-27T19:26:09.589Z,5.00
2019-01-27T19:29:15.738Z,4.90
2019-01-27T19:32:02.235Z,4.90
2019-01-27T19:34:59.394Z,4.90
2019-01-27T19:37:50.358Z,4.90
2019-01-27T19:40:38.259Z,4.90
2019-01-27T19:43:25.162Z,4.90
2019-01-27T19:46:05.320Z,4.90
2019-01-27T19:49:05.573Z,4.90
2019-01-27T19:51:51.280Z,4.90
2019-01-27T19:54:50.112Z,4.90
2019-01-27T19:57:56.422Z,4.90
2019-01-27T20:00:43.113Z,4.90
2019-01-27T20:03:34.187Z,4.90
2019-01-27T20:06:21.850Z,4.90
2019-01-27T20:09:08.670Z,4.90
2019-01-27T20:11:50.507Z,4.90
2019-01-27T20:14:29.160Z,4.90
2019-01-27T20:17:05.362Z,4.90
2019-01-27T20:19:48.447Z,4.80
2019-01-27T20:22:35.403Z,4.80
2019-01-27T20:25:14.733Z,4.80
2019-01-27T20:27:52.603Z,4.80
2019-01-27T20:30:46.993Z,4.80
2019-01-27T20:33:29.864Z,4.90
2019-01-27T20:36:14.515Z,4.80
2019-01-27T20:38:59.351Z,4.80
2019-01-27T20:41:46.081Z,4.80
2019-01-27T20:44:32.890Z,4.80
2019-01-27T20:47:19.715Z,4.80
2019-01-27T20:50:06.361Z,4.80
2019-01-27T20:52:42.997Z,4.80
2019-01-27T20:55:27.528Z,4.80
2019-01-27T20:58:12.675Z,4.80
2019-01-27T21:00:49.303Z,4.80
2019-01-27T21:03:43.786Z,4.70
2019-01-27T21:06:34.462Z,4.70
2019-01-27T21:09:42.347Z,4.70
2019-01-27T21:12:18.735Z,4.70
2019-01-27T21:15:24.791Z,4.70
2019-01-27T21:18:18.774Z,4.70
2019-01-27T21:20:47.816Z,4.70
2019-01-27T21:23:16.757Z,4.60
2019-01-27T21:25:45.665Z,4.60
2019-01-27T21:28:14.838Z,4.60
2019-01-27T21:30:43.863Z,4.60
2019-01-27T21:33:12.813Z,4.60
2019-01-27T21:35:42.010Z,4.60
2019-01-27T21:38:10.871Z,4.60
2019-01-27T21:40:39.922Z,4.60
2019-01-27T21:43:08.755Z,4.60
2019-01-27T21:45:37.810Z,4.60
2019-01-27T21:48:06.791Z,4.60
2019-01-27T21:50:35.682Z,4.50
2019-01-27T21:53:04.844Z,4.50
2019-01-27T21:55:34.260Z,4.50
2019-01-27T21:58:03.256Z,4.50
2019-01-27T22:00:32.299Z,4.50
2019-01-27T22:03:01.190Z,4.50
2019-01-27T22:05:30.151Z,4.50
2019-01-27T22:07:59.140Z,4.50
2019-01-27T22:10:28.221Z,4.50
2019-01-27T22:12:57.648Z,4.50
2019-01-27T22:15:30.687Z,4.40
2019-01-27T22:17:59.572Z,4.40
2019-01-27T22:20:28.603Z,4.40
2019-01-27T22:22:57.526Z,4.40
2019-01-27T22:25:26.431Z,4.40
2019-01-27T22:27:55.242Z,4.40
2019-01-27T22:30:24.480Z,4.40
2019-01-27T22:32:53.544Z,4.40
2019-01-27T22:35:22.387Z,4.40
2019-01-27T22:37:51.398Z,4.40
2019-01-27T22:40:20.475Z,4.40
2019-01-27T22:42:49.455Z,4.40
2019-01-27T22:45:18.450Z,4.40
2019-01-27T22:47:47.663Z,4.40
2019-01-27T22:50:18.124Z,4.40
2019-01-27T22:52:47.461Z,4.40
2019-01-27T22:55:16.522Z,4.40
2019-01-27T22:57:45.436Z,4.40
2019-01-27T23:00:58.589Z,4.40
2019-01-27T23:03:28.667Z,4.40
2019-01-27T23:05:57.472Z,4.40
2019-01-27T23:08:26.369Z,4.40
2019-01-27T23:10:55.201Z,4.30
2019-01-27T23:13:24.023Z,4.40
2019-01-27T23:15:52.871Z,4.40
2019-01-27T23:18:21.986Z,4.40
2019-01-27T23:20:50.922Z,4.40
2019-01-27T23:23:19.851Z,4.40
2019-01-27T23:25:50.391Z,4.40
2019-01-27T23:28:19.454Z,4.40
2019-01-27T23:30:48.379Z,4.40
2019-01-27T23:33:17.510Z,4.40
2019-01-27T23:35:46.418Z,4.40
2019-01-27T23:38:15.346Z,4.40
2019-01-27T23:40:44.327Z,4.40
2019-01-27T23:43:13.200Z,4.40
2019-01-27T23:45:42.206Z,4.40
2019-01-27T23:48:11.073Z,4.40
2019-01-27T23:50:39.991Z,4.40
2019-01-27T23:53:08.884Z,4.40
2019-01-27T23:55:37.743Z,4.40
2019-01-27T23:58:06.676Z,4.50
